Time;durP1;ratioP1;P1;durP2;ratioP2;P2;SDS_P1;SDS_P2;PMS_P1;PMS_P2;Temp;Humidity;BMP_temperature;BMP_pressure;BME280_temperature;BME280_humidity;BME280_pressure;Samples;Min_cycle;Max_cycle;Signal;HPM_P1;HPM_P2
2021/10/13 00:00:24;;;;;;;38.73;20.20;;;7.50;99.90;;;;;;4438773;32;20194;-65
2021/10/13 00:02:50;;;;;;;35.30;19.57;;;7.50;99.90;;;;;;4440520;32;20178;-65
2021/10/13 00:05:17;;;;;;;34.83;19.87;;;7.60;99.90;;;;;;4440204;32;20124;-65
2021/10/13 00:07:44;;;;;;;38.20;20.93;;;7.50;99.90;;;;;;4438502;32;20125;-65
2021/10/13 00:10:11;;;;;;;34.77;19.60;;;7.50;99.90;;;;;;4447126;32;20198;-65
2021/10/13 00:12:38;;;;;;;37.50;19.17;;;7.50;99.90;;;;;;4438112;32;20195;-66
2021/10/13 00:15:07;;;;;;;37.53;19.67;;;7.60;99.90;;;;;;4439719;32;20498;-65
2021/10/13 00:17:34;;;;;;;30.43;17.50;;;7.70;99.90;;;;;;4438492;32;20162;-65
2021/10/13 00:20:04;;;;;;;34.97;19.60;;;7.70;99.90;;;;;;4440347;32;20238;-66
2021/10/13 00:22:31;;;;;;;35.73;19.20;;;7.70;99.90;;;;;;4440114;32;20198;-65
2021/10/13 00:24:58;;;;;;;33.83;17.90;;;7.50;99.90;;;;;;4440870;32;20134;-65
2021/10/13 00:27:25;;;;;;;34.90;18.43;;;7.50;99.90;;;;;;4441600;32;20508;-64
2021/10/13 00:29:51;;;;;;;30.30;17.60;;;7.50;99.90;;;;;;4443091;32;20125;-65
2021/10/13 00:32:18;;;;;;;31.30;17.77;;;7.50;99.90;;;;;;4440841;32;20145;-64
2021/10/13 00:34:45;;;;;;;33.30;18.13;;;7.50;99.90;;;;;;4443143;32;20443;-64
2021/10/13 00:37:12;;;;;;;31.60;17.67;;;7.60;99.90;;;;;;4442850;32;20172;-65
2021/10/13 00:39:38;;;;;;;31.70;17.60;;;7.60;99.90;;;;;;4451389;32;20189;-65
2021/10/13 00:42:05;;;;;;;31.03;18.07;;;7.70;99.90;;;;;;4442459;32;20186;-65
2021/10/13 00:44:32;;;;;;;34.67;18.67;;;7.60;99.90;;;;;;4442874;32;20172;-65
2021/10/13 00:47:00;;;;;;;33.53;17.67;;;7.60;99.90;;;;;;4442358;32;20167;-65
2021/10/13 00:49:27;;;;;;;34.17;19.07;;;7.60;99.90;;;;;;4441058;32;20134;-65
2021/10/13 00:51:54;;;;;;;36.83;19.07;;;7.60;99.90;;;;;;4442558;32;20394;-64
2021/10/13 00:54:23;;;;;;;39.33;20.27;;;7.50;99.90;;;;;;4442527;32;20436;-64
2021/10/13 00:56:50;;;;;;;37.47;19.00;;;7.40;99.90;;;;;;4441964;32;20175;-64
2021/10/13 00:59:17;;;;;;;39.53;19.73;;;7.40;99.90;;;;;;4441020;32;20179;-64
2021/10/13 01:01:51;;;;;;;36.90;19.20;;;7.40;99.90;;;;;;4441474;32;20129;-65
2021/10/13 01:05:12;;;;;;;38.70;19.70;;;7.30;99.90;;;;;;4441152;32;20180;-64
2021/10/13 01:08:03;;;;;;;36.77;19.37;;;7.40;99.90;;;;;;4377818;32;20206;-65
2021/10/13 01:11:06;;;;;;;38.23;19.00;;;7.40;99.90;;;;;;4379632;32;20470;-65
2021/10/13 01:13:48;;;;;;;38.77;20.20;;;7.40;99.90;;;;;;4379372;32;20167;-64
2021/10/13 01:16:20;;;;;;;34.73;19.23;;;7.30;99.90;;;;;;4379572;32;20197;-65
2021/10/13 01:18:51;;;;;;;37.57;19.67;;;7.40;99.90;;;;;;4377881;32;20163;-65
2021/10/13 01:21:53;;;;;;;39.90;20.97;;;7.40;99.90;;;;;;4377377;32;20191;-65
2021/10/13 01:24:47;;;;;;;37.90;20.07;;;7.40;99.90;;;;;;4378341;32;20206;-64
2021/10/13 01:27:42;;;;;;;39.97;20.93;;;7.50;99.90;;;;;;4378587;32;20140;-65
2021/10/13 01:30:11;;;;;;;37.07;20.37;;;7.30;99.90;;;;;;4379310;32;20174;-65
2021/10/13 01:32:40;;;;;;;40.43;20.60;;;7.30;99.90;;;;;;4379153;32;20203;-65
2021/10/13 01:35:08;;;;;;;43.87;22.60;;;7.40;99.90;;;;;;4379230;32;20140;-65
2021/10/13 01:37:43;;;;;;;42.33;21.93;;;7.40;99.90;;;;;;4379291;32;20172;-64
2021/10/13 01:40:13;;;;;;;41.20;21.90;;;7.40;99.90;;;;;;4377475;32;20179;-65
2021/10/13 01:42:42;;;;;;;44.33;23.40;;;7.50;99.90;;;;;;4433610;32;20158;-64
2021/10/13 01:45:10;;;;;;;43.30;23.13;;;7.40;99.90;;;;;;4440468;32;20126;-65
2021/10/13 01:47:39;;;;;;;46.97;23.60;;;7.40;99.90;;;;;;4442051;32;20145;-64
2021/10/13 01:50:07;;;;;;;48.87;24.50;;;7.30;99.90;;;;;;4440181;32;20158;-64
2021/10/13 01:52:36;;;;;;;49.47;25.43;;;7.00;99.90;;;;;;4440236;32;20184;-64
2021/10/13 01:55:04;;;;;;;48.60;24.60;;;6.90;99.90;;;;;;4439808;32;20130;-65
2021/10/13 01:57:32;;;;;;;48.20;24.97;;;6.90;99.90;;;;;;4439876;32;20520;-64
2021/10/13 02:00:03;;;;;;;47.00;25.17;;;6.90;99.90;;;;;;4441643;32;20460;-64
2021/10/13 02:02:32;;;;;;;46.90;24.07;;;6.90;99.90;;;;;;4440138;32;20204;-64
2021/10/13 02:05:00;;;;;;;49.13;25.03;;;7.00;99.90;;;;;;4441912;32;20182;-64
2021/10/13 02:07:28;;;;;;;46.30;24.43;;;7.00;99.90;;;;;;4439850;32;20212;-65
2021/10/13 02:10:03;;;;;;;46.90;23.37;;;6.80;99.90;;;;;;4448258;32;20625;-65
2021/10/13 02:12:32;;;;;;;49.67;23.87;;;6.70;99.90;;;;;;4440870;32;20146;-65
2021/10/13 02:15:03;;;;;;;48.93;23.00;;;6.60;99.90;;;;;;4441192;32;20174;-65
2021/10/13 02:17:31;;;;;;;46.63;22.97;;;6.50;99.90;;;;;;4441033;32;20146;-65
2021/10/13 02:19:59;;;;;;;46.37;23.33;;;6.30;99.90;;;;;;4440619;32;20444;-65
2021/10/13 02:22:29;;;;;;;49.17;24.77;;;6.30;99.90;;;;;;4441467;32;20162;-65
2021/10/13 02:24:56;;;;;;;47.17;23.10;;;6.10;99.90;;;;;;4439484;32;20165;-64
2021/10/13 02:27:44;;;;;;;45.60;23.37;;;6.20;99.90;;;;;;4440687;32;20135;-64
2021/10/13 02:30:11;;;;;;;47.83;22.43;;;6.20;99.90;;;;;;4441468;32;20130;-64
2021/10/13 02:32:38;;;;;;;48.87;23.73;;;6.20;99.90;;;;;;4441434;32;20194;-65
2021/10/13 02:35:06;;;;;;;49.30;23.67;;;6.10;99.90;;;;;;4439547;32;20177;-64
2021/10/13 02:37:33;;;;;;;48.87;23.40;;;6.10;99.90;;;;;;4439696;32;20126;-64
2021/10/13 02:40:00;;;;;;;50.40;24.37;;;6.10;99.90;;;;;;4441221;32;20197;-64
2021/10/13 02:42:27;;;;;;;56.03;26.07;;;6.10;99.90;;;;;;4440823;32;20166;-65
2021/10/13 02:44:54;;;;;;;54.30;24.67;;;6.10;99.90;;;;;;4441478;32;20125;-65
2021/10/13 02:47:39;;;;;;;53.30;25.27;;;6.10;99.90;;;;;;4438617;32;20474;-65
2021/10/13 02:50:30;;;;;;;58.87;25.87;;;6.00;99.90;;;;;;4438465;32;20278;-64
2021/10/13 02:53:31;;;;;;;61.67;26.93;;;6.00;99.90;;;;;;4438680;32;20210;-64
2021/10/13 02:56:02;;;;;;;56.73;26.10;;;5.90;99.90;;;;;;4440776;32;20187;-64
2021/10/13 02:58:41;;;;;;;61.13;25.50;;;5.90;99.90;;;;;;4440993;32;20161;-64
2021/10/13 03:01:15;;;;;;;59.30;26.77;;;5.90;99.90;;;;;;4438862;32;20179;-64
2021/10/13 03:03:51;;;;;;;62.37;27.60;;;5.90;99.90;;;;;;4439666;32;20199;-65
2021/10/13 03:06:19;;;;;;;62.90;27.23;;;5.80;99.90;;;;;;4439831;32;20132;-65
2021/10/13 03:08:49;;;;;;;60.80;26.33;;;5.90;99.90;;;;;;4440816;32;20403;-64
2021/10/13 03:11:18;;;;;;;58.90;27.57;;;5.90;99.90;;;;;;4439087;32;20188;-65
2021/10/13 03:13:49;;;;;;;57.70;25.13;;;5.90;99.90;;;;;;4438889;32;20213;-64
2021/10/13 03:16:18;;;;;;;53.20;24.10;;;5.80;99.90;;;;;;4439048;32;20175;-64
2021/10/13 03:18:47;;;;;;;49.23;22.60;;;5.80;99.90;;;;;;4438804;32;20163;-65
2021/10/13 03:21:15;;;;;;;48.50;23.17;;;5.80;99.90;;;;;;4438987;32;20174;-64
2021/10/13 03:23:42;;;;;;;51.43;22.27;;;5.80;99.90;;;;;;4440649;32;20381;-65
2021/10/13 03:26:13;;;;;;;51.23;21.87;;;5.90;99.90;;;;;;4440702;32;20339;-65
2021/10/13 03:28:42;;;;;;;47.00;21.67;;;5.90;99.90;;;;;;4448306;32;20304;-65
2021/10/13 03:31:09;;;;;;;44.97;21.43;;;5.70;99.90;;;;;;4440070;32;20123;-68
2021/10/13 03:33:37;;;;;;;48.50;21.57;;;5.70;99.90;;;;;;4440189;32;20147;-64
2021/10/13 03:36:09;;;;;;;43.40;20.77;;;5.70;99.90;;;;;;4440267;32;20147;-64
2021/10/13 03:38:36;;;;;;;43.30;20.37;;;5.80;99.90;;;;;;4440733;32;20152;-65
2021/10/13 03:41:03;;;;;;;41.63;20.00;;;5.90;99.90;;;;;;4439432;32;20445;-65
2021/10/13 03:43:30;;;;;;;41.17;19.87;;;5.90;99.90;;;;;;4438778;32;20156;-65
2021/10/13 03:45:57;;;;;;;43.27;19.87;;;6.00;99.90;;;;;;4438534;32;20126;-66
2021/10/13 03:48:27;;;;;;;41.33;19.87;;;6.10;99.90;;;;;;4440031;32;20189;-65
2021/10/13 03:50:53;;;;;;;41.67;19.87;;;6.20;99.90;;;;;;4440490;32;20522;-65
2021/10/13 03:53:20;;;;;;;44.30;21.70;;;6.10;99.90;;;;;;4440285;32;20174;-65
2021/10/13 03:55:47;;;;;;;44.03;21.97;;;6.10;99.90;;;;;;4440433;32;20131;-65
2021/10/13 03:58:13;;;;;;;43.80;21.47;;;6.10;99.90;;;;;;4438225;32;20169;-65
2021/10/13 04:00:40;;;;;;;42.97;20.63;;;6.10;99.90;;;;;;4443164;32;20183;-65
2021/10/13 04:03:07;;;;;;;41.57;21.63;;;6.10;99.90;;;;;;4443463;32;20158;-65
2021/10/13 04:05:34;;;;;;;41.10;21.13;;;6.10;99.90;;;;;;4443592;32;20126;-65
2021/10/13 04:08:05;;;;;;;39.17;20.37;;;6.20;99.90;;;;;;4447834;32;20142;-65
2021/10/13 04:10:32;;;;;;;41.53;20.87;;;6.20;99.90;;;;;;4443530;32;20141;-65
2021/10/13 04:12:59;;;;;;;31.37;16.43;;;6.20;99.90;;;;;;4443261;32;20223;-65
2021/10/13 04:15:25;;;;;;;30.33;16.83;;;6.10;99.90;;;;;;4448062;32;20228;-65
2021/10/13 04:17:52;;;;;;;28.47;15.70;;;6.20;99.90;;;;;;4443002;32;20452;-65
2021/10/13 04:20:19;;;;;;;29.93;16.30;;;6.20;99.90;;;;;;4443404;32;20130;-65
2021/10/13 04:22:45;;;;;;;28.60;16.57;;;6.20;99.90;;;;;;4440532;32;20156;-65
2021/10/13 04:25:12;;;;;;;28.80;15.93;;;6.20;99.90;;;;;;4441597;32;20176;-66
2021/10/13 04:27:39;;;;;;;30.37;16.80;;;6.30;99.90;;;;;;4443138;32;20133;-65
2021/10/13 04:30:07;;;;;;;31.93;17.60;;;6.30;99.90;;;;;;4443048;32;20523;-66
2021/10/13 04:32:34;;;;;;;29.67;17.00;;;6.20;99.90;;;;;;4443028;32;20144;-65
2021/10/13 04:35:01;;;;;;;29.03;16.13;;;6.20;99.90;;;;;;4441136;32;20133;-65
2021/10/13 04:37:27;;;;;;;32.57;17.57;;;6.30;99.90;;;;;;4443199;32;20146;-65
2021/10/13 04:39:54;;;;;;;30.60;17.60;;;6.30;99.90;;;;;;4441549;32;20138;-66
2021/10/13 04:42:21;;;;;;;33.17;18.07;;;6.30;99.90;;;;;;4441128;32;20162;-66
2021/10/13 04:44:48;;;;;;;35.90;18.50;;;6.40;99.90;;;;;;4443078;32;20145;-66
2021/10/13 04:47:14;;;;;;;34.00;17.30;;;6.30;99.90;;;;;;4441375;32;20191;-66
2021/10/13 04:49:41;;;;;;;37.30;18.10;;;6.40;99.90;;;;;;4441084;32;20130;-65
2021/10/13 04:52:08;;;;;;;37.33;18.17;;;6.30;99.90;;;;;;4442762;32;20130;-65
2021/10/13 04:54:35;;;;;;;37.47;17.70;;;6.20;99.90;;;;;;4441171;32;20444;-65
2021/10/13 04:57:02;;;;;;;36.90;17.90;;;6.20;99.90;;;;;;4442953;32;20173;-65
2021/10/13 04:59:28;;;;;;;34.60;17.67;;;6.20;99.90;;;;;;4442539;32;20188;-65
2021/10/13 05:01:55;;;;;;;38.00;18.00;;;6.30;99.90;;;;;;4442113;32;20131;-64
2021/10/13 05:04:22;;;;;;;38.43;18.50;;;6.20;99.90;;;;;;4440739;32;20207;-66
2021/10/13 05:06:49;;;;;;;36.10;17.90;;;6.20;99.90;;;;;;4442250;32;20126;-64
2021/10/13 05:09:16;;;;;;;35.97;18.13;;;6.20;99.90;;;;;;4441052;32;20181;-65
2021/10/13 05:11:43;;;;;;;36.57;17.33;;;6.20;99.90;;;;;;4440219;32;20150;-65
2021/10/13 05:14:11;;;;;;;35.70;17.43;;;6.30;99.90;;;;;;4440906;32;20132;-65
2021/10/13 05:16:40;;;;;;;33.40;16.97;;;6.40;99.90;;;;;;4442174;32;20123;-66
2021/10/13 05:19:08;;;;;;;38.27;17.40;;;6.30;99.90;;;;;;4440257;32;20217;-65
2021/10/13 05:21:35;;;;;;;36.63;17.27;;;6.20;99.90;;;;;;4441643;32;20535;-66
2021/10/13 05:24:01;;;;;;;34.53;17.33;;;6.20;99.90;;;;;;4440556;32;20131;-66
2021/10/13 05:26:28;;;;;;;37.20;17.73;;;6.30;99.90;;;;;;4441752;32;20460;-65
2021/10/13 05:28:55;;;;;;;37.70;18.00;;;6.30;99.90;;;;;;4441525;32;20213;-66
2021/10/13 05:31:22;;;;;;;41.87;18.67;;;6.30;99.90;;;;;;4442042;32;20135;-66
2021/10/13 05:33:49;;;;;;;40.43;18.40;;;6.30;99.90;;;;;;4441509;32;20220;-66
2021/10/13 05:36:16;;;;;;;43.57;19.10;;;6.30;99.90;;;;;;4441239;32;20125;-66
2021/10/13 05:38:55;;;;;;;45.70;19.80;;;6.30;99.90;;;;;;4442056;32;20135;-66
2021/10/13 05:41:22;;;;;;;46.93;20.03;;;6.30;99.90;;;;;;4441181;32;20139;-66
2021/10/13 05:43:49;;;;;;;48.83;20.60;;;6.30;99.90;;;;;;4439345;32;20146;-65
2021/10/13 05:46:16;;;;;;;49.53;20.50;;;6.30;99.90;;;;;;4441673;32;20172;-65
2021/10/13 05:48:43;;;;;;;51.97;21.43;;;6.40;99.90;;;;;;4441971;32;20199;-66
2021/10/13 05:51:09;;;;;;;57.77;23.33;;;6.40;99.90;;;;;;4441756;32;20205;-65
2021/10/13 05:53:36;;;;;;;55.73;22.57;;;6.40;99.90;;;;;;4440180;32;20186;-65
2021/10/13 05:56:03;;;;;;;56.43;23.07;;;6.40;99.90;;;;;;4440309;32;20194;-66
2021/10/13 05:58:30;;;;;;;60.13;23.97;;;6.40;99.90;;;;;;4440982;32;20143;-66
2021/10/13 06:00:57;;;;;;;61.40;24.27;;;6.40;99.90;;;;;;4441688;32;20564;-66
2021/10/13 06:03:24;;;;;;;62.60;24.10;;;6.40;99.90;;;;;;4440860;32;20152;-64
2021/10/13 06:05:51;;;;;;;61.77;23.53;;;6.50;99.90;;;;;;4439471;32;20476;-64
2021/10/13 06:08:18;;;;;;;59.57;23.80;;;6.60;99.90;;;;;;4440222;32;20446;-67
2021/10/13 06:10:45;;;;;;;66.13;25.13;;;6.60;99.90;;;;;;4441629;32;20127;-67
2021/10/13 06:13:11;;;;;;;66.13;25.53;;;6.60;99.90;;;;;;4441105;32;20153;-64
2021/10/13 06:15:39;;;;;;;65.77;24.37;;;6.60;99.90;;;;;;4441683;32;20139;-66
2021/10/13 06:18:07;;;;;;;62.80;25.13;;;6.60;99.90;;;;;;4440708;32;20416;-66
2021/10/13 06:20:34;;;;;;;65.03;25.17;;;6.70;99.90;;;;;;4440262;32;20126;-65
2021/10/13 06:23:02;;;;;;;64.93;25.33;;;6.70;99.90;;;;;;4438149;32;20136;-66
2021/10/13 06:25:30;;;;;;;62.50;24.87;;;6.70;99.90;;;;;;4441481;32;20126;-65
2021/10/13 06:27:57;;;;;;;59.20;24.23;;;6.70;99.90;;;;;;4439714;32;20168;-65
2021/10/13 06:30:23;;;;;;;64.23;23.80;;;6.80;99.90;;;;;;4441261;32;20122;-65
2021/10/13 06:32:50;;;;;;;61.13;25.43;;;6.80;99.90;;;;;;4438954;32;20122;-66
2021/10/13 06:35:17;;;;;;;59.33;25.03;;;6.80;99.90;;;;;;4441116;32;20484;-66
2021/10/13 06:37:46;;;;;;;54.00;22.87;;;6.90;99.90;;;;;;4440488;32;20191;-65
2021/10/13 06:40:13;;;;;;;53.87;22.40;;;6.90;99.90;;;;;;4439302;32;20552;-66
2021/10/13 06:42:41;;;;;;;52.90;24.10;;;7.00;99.90;;;;;;4438772;32;20196;-65
2021/10/13 06:45:09;;;;;;;54.57;23.70;;;7.10;99.90;;;;;;4440182;32;20154;-66
2021/10/13 06:47:36;;;;;;;55.90;24.07;;;7.20;99.90;;;;;;4439955;32;20166;-65
2021/10/13 06:50:07;;;;;;;53.37;23.70;;;7.30;99.90;;;;;;4440745;32;20139;-65
2021/10/13 06:52:37;;;;;;;50.67;22.63;;;7.30;99.90;;;;;;4440062;32;20134;-65
2021/10/13 06:55:05;;;;;;;48.33;22.70;;;7.30;99.90;;;;;;4440159;32;20138;-65
2021/10/13 06:57:32;;;;;;;51.33;21.63;;;7.20;99.90;;;;;;4440229;32;20129;-65
2021/10/13 06:59:59;;;;;;;48.53;22.73;;;7.10;99.90;;;;;;4439207;32;20238;-66
2021/10/13 07:02:25;;;;;;;46.57;21.63;;;7.20;99.90;;;;;;4440190;32;20407;-66
2021/10/13 07:07:10;;;;;;;42.57;20.73;;;7.40;99.90;;;;;;4484723;31;20290;-65
2021/10/13 07:09:37;;;;;;;44.87;21.30;;;7.50;99.90;;;;;;4468583;32;20461;-67
2021/10/13 07:12:04;;;;;;;41.23;20.40;;;7.60;99.90;;;;;;4467573;32;20469;-66
2021/10/13 07:14:31;;;;;;;37.37;18.87;;;7.70;99.90;;;;;;4469486;32;20376;-66
2021/10/13 07:16:57;;;;;;;33.33;17.60;;;7.80;99.90;;;;;;4463796;32;20150;-66
2021/10/13 07:19:24;;;;;;;37.97;18.10;;;7.80;99.90;;;;;;4453564;32;20132;-66
2021/10/13 07:21:51;;;;;;;32.40;16.47;;;7.70;99.90;;;;;;4451981;32;20203;-66
2021/10/13 07:24:18;;;;;;;33.70;16.90;;;7.70;99.90;;;;;;4452004;32;20408;-66
2021/10/13 07:26:45;;;;;;;27.77;15.73;;;7.70;99.90;;;;;;4453608;32;20138;-66
2021/10/13 07:29:13;;;;;;;26.53;14.50;;;7.80;99.90;;;;;;4451720;32;20168;-66
2021/10/13 07:31:39;;;;;;;26.57;13.70;;;7.80;99.90;;;;;;4453432;32;20199;-66
2021/10/13 07:34:06;;;;;;;25.17;14.10;;;7.70;99.90;;;;;;4452209;32;20412;-66
2021/10/13 07:36:34;;;;;;;25.00;14.03;;;7.80;99.90;;;;;;4453333;32;20158;-65
2021/10/13 07:39:01;;;;;;;26.30;14.27;;;7.80;99.90;;;;;;4453562;32;20130;-65
2021/10/13 07:41:28;;;;;;;23.90;14.03;;;7.90;99.90;;;;;;4453726;32;20165;-66
2021/10/13 07:43:55;;;;;;;28.37;14.57;;;7.90;99.90;;;;;;4451522;32;20382;-66
2021/10/13 07:46:24;;;;;;;26.17;15.63;;;8.00;99.90;;;;;;4453386;32;20191;-66
2021/10/13 07:48:52;;;;;;;30.50;15.43;;;8.10;99.90;;;;;;4452117;32;20165;-67
2021/10/13 07:51:19;;;;;;;25.27;14.33;;;8.10;99.90;;;;;;4459024;32;20198;-67
2021/10/13 07:53:46;;;;;;;28.83;15.20;;;8.10;99.90;;;;;;4467123;32;20512;-67
2021/10/13 07:56:13;;;;;;;27.13;15.33;;;8.00;99.90;;;;;;4466850;32;20161;-67
2021/10/13 07:58:39;;;;;;;26.70;15.60;;;8.10;99.90;;;;;;4468669;32;20182;-67
2021/10/13 08:01:06;;;;;;;24.17;15.00;;;8.00;99.90;;;;;;4466915;32;20184;-67
2021/10/13 08:03:33;;;;;;;28.53;14.70;;;8.10;99.90;;;;;;4468498;32;20128;-67
2021/10/13 08:06:00;;;;;;;25.53;13.70;;;8.10;99.90;;;;;;4467117;32;20165;-69
2021/10/13 08:08:27;;;;;;;24.53;13.90;;;8.10;99.90;;;;;;4468332;32;20130;-68
2021/10/13 08:10:54;;;;;;;21.20;12.50;;;8.10;99.90;;;;;;4467907;32;20240;-68
2021/10/13 08:13:21;;;;;;;18.70;11.90;;;8.10;99.90;;;;;;4467725;32;20379;-67
2021/10/13 08:15:47;;;;;;;20.07;11.47;;;8.20;99.90;;;;;;4466760;32;20452;-67
2021/10/13 08:18:14;;;;;;;19.17;11.40;;;8.10;99.90;;;;;;4458400;32;20133;-67
2021/10/13 08:20:41;;;;;;;17.07;10.67;;;8.20;99.90;;;;;;4458081;32;20489;-67
2021/10/13 08:23:08;;;;;;;19.10;10.80;;;8.50;99.90;;;;;;4453401;32;20147;-67
2021/10/13 08:25:35;;;;;;;15.90;9.70;;;8.70;99.90;;;;;;4448864;32;20142;-67
2021/10/13 08:28:02;;;;;;;16.37;9.00;;;9.30;99.90;;;;;;4440642;32;20175;-66
2021/10/13 08:30:29;;;;;;;15.50;8.93;;;9.80;99.90;;;;;;4442607;32;20184;-66
2021/10/13 08:32:56;;;;;;;14.83;9.47;;;10.30;99.90;;;;;;4442344;32;20373;-67
2021/10/13 08:35:23;;;;;;;16.23;9.23;;;11.00;99.90;;;;;;4439877;32;20526;-66
2021/10/13 08:37:50;;;;;;;16.00;9.67;;;11.00;99.90;;;;;;4441457;32;20126;-66
2021/10/13 08:40:16;;;;;;;14.67;9.00;;;10.90;99.90;;;;;;4440209;32;20142;-67
2021/10/13 08:42:58;;;;;;;14.30;9.13;;;10.80;99.90;;;;;;4440128;32;20131;-66
2021/10/13 08:45:27;;;;;;;14.47;9.13;;;10.80;99.90;;;;;;4439948;32;20515;-66
2021/10/13 08:47:54;;;;;;;12.33;7.80;;;10.80;99.90;;;;;;4442277;32;20130;-67
2021/10/13 08:50:21;;;;;;;12.50;8.00;;;10.50;99.90;;;;;;4442134;32;20533;-66
2021/10/13 08:52:50;;;;;;;10.80;7.30;;;10.30;99.90;;;;;;4440596;32;20135;-68
2021/10/13 08:55:17;;;;;;;12.47;8.30;;;10.50;99.90;;;;;;4441666;32;20135;-68
2021/10/13 08:57:44;;;;;;;14.30;8.40;;;11.10;99.90;;;;;;4442106;32;20375;-68
2021/10/13 09:00:21;;;;;;;14.83;8.40;;;11.50;99.90;;;;;;4442115;32;20131;-67
2021/10/13 09:02:48;;;;;;;13.33;7.97;;;11.70;99.90;;;;;;4441781;32;20122;-67
2021/10/13 09:05:17;;;;;;;13.70;8.23;;;12.10;99.90;;;;;;4440026;32;20178;-68
2021/10/13 09:07:53;;;;;;;12.10;7.87;;;12.10;99.90;;;;;;4450307;32;20298;-66
2021/10/13 09:10:40;;;;;;;15.17;8.07;;;11.70;99.90;;;;;;4441870;32;20131;-66
2021/10/13 09:13:17;;;;;;;11.40;7.30;;;11.40;99.90;;;;;;4439930;32;20139;-66
2021/10/13 09:15:53;;;;;;;12.10;8.33;;;11.20;99.90;;;;;;4440059;32;20183;-67
2021/10/13 09:18:23;;;;;;;16.30;9.97;;;11.20;99.90;;;;;;4441274;32;20126;-67
2021/10/13 09:20:52;;;;;;;12.93;8.37;;;11.10;99.90;;;;;;4441546;32;20261;-67
2021/10/13 09:23:29;;;;;;;14.23;8.80;;;11.00;99.90;;;;;;4441065;32;20192;-67
2021/10/13 09:26:10;;;;;;;11.73;7.77;;;10.80;99.90;;;;;;4441659;32;20139;-66
2021/10/13 09:28:40;;;;;;;11.37;7.17;;;11.00;99.90;;;;;;4440161;32;20786;-67
2021/10/13 09:31:15;;;;;;;11.17;7.77;;;11.30;99.90;;;;;;4441699;32;20359;-66
2021/10/13 09:34:00;;;;;;;12.77;7.63;;;11.30;99.90;;;;;;4440942;32;20165;-66
2021/10/13 09:36:41;;;;;;;11.00;7.90;;;11.70;99.90;;;;;;4441326;32;20230;-66
2021/10/13 09:39:13;;;;;;;11.20;7.17;;;11.70;99.90;;;;;;4447490;32;20490;-66
2021/10/13 09:42:00;;;;;;;11.60;7.30;;;12.20;99.90;;;;;;4456743;32;20142;-66
2021/10/13 09:44:29;;;;;;;8.77;6.70;;;13.30;99.90;;;;;;4456787;32;20195;-67
2021/10/13 09:47:03;;;;;;;9.93;6.20;;;13.70;99.90;;;;;;4455248;32;20496;-66
2021/10/13 09:49:29;;;;;;;7.87;6.23;;;14.50;99.90;;;;;;4456346;32;20144;-67
2021/10/13 09:52:01;;;;;;;8.87;6.30;;;14.90;99.90;;;;;;4455779;32;20175;-67
2021/10/13 09:54:27;;;;;;;8.63;5.80;;;15.10;99.90;;;;;;4456554;32;20166;-66
2021/10/13 09:56:54;;;;;;;11.23;6.70;;;15.40;99.90;;;;;;4456513;32;20130;-66
2021/10/13 09:59:22;;;;;;;9.57;6.40;;;16.00;99.90;;;;;;4456567;32;20137;-66
2021/10/13 10:01:52;;;;;;;10.33;6.73;;;15.50;99.90;;;;;;4456441;32;20126;-65
2021/10/13 10:04:27;;;;;;;9.33;6.50;;;15.30;99.90;;;;;;4453567;32;20328;-65
2021/10/13 10:06:58;;;;;;;9.77;5.40;;;14.90;99.90;;;;;;4452912;32;20221;-65
2021/10/13 10:09:26;;;;;;;6.70;5.07;;;14.80;99.90;;;;;;4456600;32;20339;-64
2021/10/13 10:12:05;;;;;;;7.43;5.60;;;15.00;99.90;;;;;;4450828;32;20150;-64
2021/10/13 10:14:43;;;;;;;8.60;5.83;;;14.70;99.90;;;;;;4450916;32;20506;-65
2021/10/13 10:17:12;;;;;;;6.47;5.10;;;14.70;99.90;;;;;;4455114;32;20460;-64
2021/10/13 10:19:39;;;;;;;7.07;5.40;;;14.60;99.90;;;;;;4454324;32;20189;-64
2021/10/13 10:22:15;;;;;;;6.27;4.87;;;13.90;99.90;;;;;;4456015;32;20172;-65
2021/10/13 10:24:56;;;;;;;6.10;3.43;;;13.80;99.90;;;;;;4454318;32;20554;-64
2021/10/13 10:27:31;;;;;;;5.13;3.40;;;13.30;99.90;;;;;;4454770;32;20190;-64
2021/10/13 10:30:07;;;;;;;5.07;3.90;;;13.20;99.90;;;;;;4454566;32;20129;-65
2021/10/13 10:32:37;;;;;;;6.87;3.77;;;13.60;99.90;;;;;;4455172;32;20198;-65
2021/10/13 10:35:04;;;;;;;4.90;3.90;;;13.10;99.90;;;;;;4455973;32;20158;-64
2021/10/13 10:37:38;;;;;;;6.93;4.70;;;13.20;99.90;;;;;;4454547;32;20457;-64
2021/10/13 10:40:19;;;;;;;7.17;4.30;;;13.70;99.90;;;;;;4453523;32;20545;-64
2021/10/13 10:42:51;;;;;;;6.77;4.30;;;14.30;99.90;;;;;;4450759;32;20142;-65
2021/10/13 10:45:24;;;;;;;5.23;3.87;;;14.30;99.90;;;;;;4443801;32;20139;-64
2021/10/13 10:47:53;;;;;;;5.10;4.07;;;14.20;99.90;;;;;;4439421;32;20136;-64
2021/10/13 10:50:37;;;;;;;4.50;3.20;;;14.40;99.90;;;;;;4438703;32;20186;-65
2021/10/13 10:53:28;;;;;;;3.87;3.03;;;15.20;99.90;;;;;;4440303;32;20143;-66
2021/10/13 10:56:00;;;;;;;5.97;4.80;;;16.10;99.90;;;;;;4440416;32;20130;-65
2021/10/13 10:58:30;;;;;;;6.53;4.80;;;16.70;99.90;;;;;;4440799;32;20181;-66
2021/10/13 11:01:17;;;;;;;6.97;5.23;;;17.40;99.70;;;;;;4440320;32;20201;-65
2021/10/13 11:03:44;;;;;;;5.97;5.13;;;17.10;98.60;;;;;;4440123;32;20424;-64
2021/10/13 11:06:19;;;;;;;6.87;4.87;;;17.00;98.00;;;;;;4437892;32;20229;-64
2021/10/13 11:08:52;;;;;;;6.87;5.03;;;17.90;96.80;;;;;;4439020;32;20176;-65
2021/10/13 11:11:26;;;;;;;10.57;5.17;;;18.50;95.20;;;;;;4440709;32;20157;-65
2021/10/13 11:13:55;;;;;;;9.43;5.57;;;18.10;92.40;;;;;;4440421;32;20134;-63
2021/10/13 11:16:22;;;;;;;5.47;4.90;;;17.80;93.90;;;;;;4438752;32;20176;-65
2021/10/13 11:18:49;;;;;;;11.70;5.40;;;18.10;93.30;;;;;;4440681;32;20127;-65
2021/10/13 11:21:15;;;;;;;6.53;5.20;;;18.40;93.20;;;;;;4440218;32;20138;-65
2021/10/13 11:23:42;;;;;;;5.97;4.50;;;18.00;92.50;;;;;;4440038;32;20239;-64
2021/10/13 11:26:10;;;;;;;5.83;4.50;;;17.00;93.60;;;;;;4439746;32;20150;-65
2021/10/13 11:28:38;;;;;;;5.20;3.90;;;16.20;95.50;;;;;;4438531;32;20163;-64
2021/10/13 11:31:08;;;;;;;5.57;3.90;;;15.00;97.20;;;;;;4440425;32;20152;-64
2021/10/13 11:33:37;;;;;;;6.03;3.30;;;14.30;99.00;;;;;;4440350;32;20127;-63
2021/10/13 11:36:07;;;;;;;5.83;3.77;;;13.80;99.90;;;;;;4440246;32;20162;-64
2021/10/13 11:38:36;;;;;;;8.53;3.60;;;13.20;99.90;;;;;;4445010;32;20158;-64
2021/10/13 11:41:13;;;;;;;6.20;3.60;;;13.30;99.90;;;;;;4438389;32;20146;-65
2021/10/13 11:43:41;;;;;;;7.10;3.70;;;12.90;99.90;;;;;;4438096;32;20437;-65
2021/10/13 11:46:14;;;;;;;6.03;3.70;;;12.50;99.90;;;;;;4440421;32;20135;-65
2021/10/13 11:48:41;;;;;;;6.57;3.53;;;12.50;99.90;;;;;;4440304;32;20135;-65
2021/10/13 11:51:15;;;;;;;5.40;3.57;;;12.50;99.90;;;;;;4440041;32;20392;-64
2021/10/13 11:53:48;;;;;;;5.47;3.07;;;12.60;99.90;;;;;;4442307;32;20183;-64
2021/10/13 11:56:15;;;;;;;3.73;2.83;;;12.70;99.90;;;;;;4442923;32;20173;-63
2021/10/13 11:58:42;;;;;;;3.83;2.73;;;12.40;99.90;;;;;;4443073;32;20162;-65
2021/10/13 12:01:15;;;;;;;4.30;2.70;;;12.20;99.90;;;;;;4442364;32;20131;-64
2021/10/13 12:03:42;;;;;;;4.80;2.73;;;12.50;99.90;;;;;;4440883;32;20418;-64
2021/10/13 12:06:13;;;;;;;5.10;3.23;;;12.60;99.90;;;;;;4440476;32;20162;-65
2021/10/13 12:08:41;;;;;;;4.53;2.57;;;12.60;99.90;;;;;;4440832;32;20190;-65
2021/10/13 12:11:18;;;;;;;3.43;2.17;;;12.20;99.90;;;;;;4449171;32;20143;-64
2021/10/13 12:13:51;;;;;;;3.33;2.10;;;11.80;99.90;;;;;;4440915;32;20184;-64
2021/10/13 12:16:38;;;;;;;2.93;2.10;;;11.70;99.90;;;;;;4441088;32;20162;-65
2021/10/13 12:19:13;;;;;;;2.73;2.00;;;11.50;99.90;;;;;;4441991;32;20131;-64
2021/10/13 12:22:00;;;;;;;4.30;2.13;;;11.20;99.90;;;;;;4440916;32;20160;-63
2021/10/13 12:24:27;;;;;;;3.20;2.20;;;11.10;99.90;;;;;;4441040;32;20422;-64
2021/10/13 12:26:54;;;;;;;3.90;2.30;;;10.90;99.90;;;;;;4442388;32;20155;-64
2021/10/13 12:29:20;;;;;;;5.13;2.30;;;10.90;99.90;;;;;;4441122;32;20131;-65
2021/10/13 12:31:47;;;;;;;3.63;2.53;;;10.70;99.90;;;;;;4442231;32;20134;-65
2021/10/13 12:34:18;;;;;;;5.07;2.70;;;10.60;99.90;;;;;;4442512;32;20131;-65
2021/10/13 12:36:54;;;;;;;5.90;2.63;;;10.50;99.90;;;;;;4440847;32;20421;-65
2021/10/13 12:39:29;;;;;;;6.57;3.23;;;10.50;99.90;;;;;;4442846;32;20185;-65
2021/10/13 12:42:06;;;;;;;5.67;3.10;;;10.40;99.90;;;;;;4441029;32;20130;-66
2021/10/13 12:44:34;;;;;;;5.33;3.00;;;10.40;99.90;;;;;;4442517;32;20447;-64
2021/10/13 12:47:04;;;;;;;5.27;3.00;;;10.50;99.90;;;;;;4442441;32;20138;-65
2021/10/13 12:49:34;;;;;;;6.93;3.07;;;10.40;99.90;;;;;;4440979;32;20209;-65
2021/10/13 12:52:06;;;;;;;7.43;3.00;;;10.50;99.90;;;;;;4440362;32;20186;-64
2021/10/13 12:54:38;;;;;;;5.60;3.23;;;10.40;99.90;;;;;;4440775;32;20166;-63